createdAt,value
2023-01-19T00:01:46.158Z,91957.69
2023-01-19T00:04:16.109Z,91956.75
2023-01-19T00:06:45.915Z,91963.44
2023-01-19T00:09:15.681Z,91961.63
2023-01-19T00:11:46.855Z,91967.88
2023-01-19T00:14:16.715Z,91980.22
2023-01-19T00:16:46.380Z,91979.06
2023-01-19T00:19:17.022Z,91972.09
2023-01-19T00:21:46.718Z,91984.25
2023-01-19T00:24:16.762Z,91977.06
2023-01-19T00:26:48.141Z,91978.06
2023-01-19T00:29:18.237Z,91973.59
2023-01-19T00:31:48.141Z,91987.00
2023-01-19T00:34:18.277Z,91996.63
2023-01-19T00:36:48.038Z,91983.19
2023-01-19T00:39:18.224Z,91983.31
2023-01-19T00:42:06.930Z,91988.97
2023-01-19T00:44:36.721Z,91994.28
2023-01-19T00:50:41.238Z,91989.41
2023-01-19T00:53:11.002Z,92000.88
2023-01-19T00:55:41.039Z,92004.44
2023-01-19T00:58:11.227Z,91982.63
2023-01-19T01:00:41.176Z,91993.91
2023-01-19T01:03:11.601Z,91993.06
2023-01-19T01:05:44.803Z,91993.38
2023-01-19T01:08:14.441Z,91998.16
2023-01-19T01:10:44.121Z,91997.53
2023-01-19T01:13:20.538Z,91987.63
2023-01-19T01:15:52.923Z,91989.94
2023-01-19T01:18:23.299Z,91989.88
2023-01-19T01:20:56.257Z,91985.59
2023-01-19T01:23:26.299Z,91989.44
2023-01-19T01:25:56.138Z,91984.69
2023-01-19T01:28:25.927Z,91992.03
2023-01-19T01:30:56.399Z,91984.19
2023-01-19T01:33:41.189Z,91994.75
2023-01-19T01:36:13.884Z,91992.88
2023-01-19T01:38:44.339Z,91993.38
2023-01-19T01:41:14.642Z,91988.22
2023-01-19T01:43:51.381Z,91990.22
2023-01-19T01:46:21.467Z,91983.91
2023-01-19T01:48:59.880Z,91988.03
2023-01-19T01:51:36.663Z,91988.13
2023-01-19T01:54:18.978Z,91987.31
2023-01-19T01:56:52.199Z,92000.47
2023-01-19T01:59:27.437Z,91998.00
2023-01-19T02:02:32.880Z,91990.31
2023-01-19T02:05:06.582Z,91997.25
2023-01-19T02:08:04.612Z,92009.78
2023-01-19T02:10:52.008Z,92002.22
2023-01-19T02:13:22.906Z,91996.75
2023-01-19T02:15:55.158Z,92004.00
2023-01-19T02:18:29.639Z,91998.31
2023-01-19T02:21:13.358Z,91994.34
2023-01-19T02:23:48.140Z,91993.00
2023-01-19T02:26:22.944Z,91983.28
2023-01-19T02:28:58.984Z,91998.69
2023-01-19T02:31:30.412Z,91998.03
2023-01-19T02:34:01.298Z,91999.03
2023-01-19T02:36:36.900Z,92003.19
2023-01-19T02:39:11.274Z,92001.22
2023-01-19T02:41:45.667Z,91982.16
2023-01-19T02:44:17.141Z,91992.72
2023-01-19T02:46:47.220Z,91989.81
2023-01-19T02:49:17.123Z,91987.50
2023-01-19T02:51:47.357Z,91985.72
2023-01-19T02:54:48.479Z,91991.75
2023-01-19T02:57:58.308Z,91984.31
2023-01-19T03:00:39.066Z,91991.13
2023-01-19T03:03:25.940Z,91993.31
2023-01-19T03:06:05.164Z,91998.53
2023-01-19T03:08:45.923Z,91988.47
2023-01-19T03:11:18.144Z,91988.69
2023-01-19T03:13:53.384Z,91999.03
2023-01-19T03:16:29.050Z,91996.06
2023-01-19T03:19:04.259Z,91992.66
2023-01-19T03:21:39.478Z,91991.50
2023-01-19T03:24:14.758Z,91997.41
2023-01-19T03:26:51.239Z,92001.94
2023-01-19T03:29:25.198Z,91997.06
2023-01-19T03:31:56.838Z,92015.53
2023-01-19T03:34:27.279Z,92009.66
2023-01-19T03:37:02.290Z,92007.38
2023-01-19T03:39:32.178Z,92006.25
2023-01-19T03:42:08.385Z,92012.78
2023-01-19T03:44:40.660Z,92015.78
2023-01-19T03:47:13.739Z,92023.31
2023-01-19T03:51:42.336Z,92012.78
2023-01-19T03:54:13.581Z,92016.94
2023-01-19T03:56:44.099Z,92018.56
2023-01-19T03:59:17.712Z,92020.66
2023-01-19T04:01:47.651Z,92014.41
2023-01-19T04:04:17.597Z,92019.38
2023-01-19T04:06:48.954Z,92021.25
2023-01-19T04:09:20.082Z,92015.88
2023-01-19T04:11:50.201Z,92017.75
2023-01-19T04:14:20.186Z,92014.72
2023-01-19T04:16:50.042Z,92012.56
2023-01-19T04:19:19.758Z,92013.88
2023-01-19T04:21:52.810Z,92014.72
2023-01-19T04:24:22.718Z,92030.84
2023-01-19T04:26:54.419Z,92018.22
2023-01-19T04:29:24.850Z,92030.31
2023-01-19T04:31:54.600Z,92021.75
2023-01-19T04:34:24.545Z,92019.56
2023-01-19T04:36:56.368Z,92018.41
2023-01-19T04:39:26.438Z,92024.81
2023-01-19T04:41:57.771Z,92029.16
2023-01-19T04:44:27.639Z,92030.75
2023-01-19T04:46:57.419Z,92041.97
2023-01-19T04:49:27.407Z,92037.56
2023-01-19T04:51:58.881Z,92046.31
2023-01-19T04:54:28.872Z,92043.31
2023-01-19T04:56:58.759Z,92042.81
2023-01-19T04:59:28.687Z,92049.63
2023-01-19T05:01:58.616Z,92043.41
2023-01-19T05:04:28.761Z,92046.00
2023-01-19T05:06:59.997Z,92040.00
2023-01-19T05:09:29.783Z,92037.81
2023-01-19T05:11:59.689Z,92042.34
2023-01-19T05:14:29.518Z,92040.06
2023-01-19T05:16:59.719Z,92039.25
2023-01-19T05:19:29.598Z,92040.19
2023-01-19T05:22:00.959Z,92046.56
2023-01-19T05:24:30.719Z,92046.56
2023-01-19T05:27:00.980Z,92048.78
2023-01-19T05:29:30.798Z,92054.72
2023-01-19T05:32:01.407Z,92069.56
2023-01-19T05:34:31.260Z,92060.63
2023-01-19T05:37:02.458Z,92063.75
2023-01-19T05:39:32.352Z,92063.28
2023-01-19T05:42:02.240Z,92067.16
2023-01-19T05:44:32.116Z,92070.59
2023-01-19T05:47:01.961Z,92074.00
2023-01-19T05:49:31.798Z,92078.25
2023-01-19T05:52:03.084Z,92065.44
2023-01-19T05:54:33.225Z,92068.44
2023-01-19T05:57:03.490Z,92063.88
2023-01-19T05:59:33.278Z,92062.94
2023-01-19T06:02:03.072Z,92055.47
2023-01-19T06:04:33.117Z,92071.56
2023-01-19T06:07:04.440Z,92078.19
2023-01-19T06:09:34.263Z,92075.75
2023-01-19T06:12:04.235Z,92085.09
2023-01-19T06:14:34.116Z,92078.84
2023-01-19T06:17:03.980Z,92087.44
2023-01-19T06:19:33.839Z,92089.72
2023-01-19T06:22:05.398Z,92091.13
2023-01-19T06:24:36.844Z,92091.97
2023-01-19T06:27:06.921Z,92097.22
2023-01-19T06:29:36.978Z,92088.94
2023-01-19T06:32:07.659Z,92084.63
2023-01-19T06:34:37.538Z,92102.56
2023-01-19T06:37:08.918Z,92089.91
2023-01-19T06:39:41.362Z,92097.78
2023-01-19T06:42:11.719Z,92097.31
2023-01-19T06:44:47.692Z,92103.50
2023-01-19T06:47:18.207Z,92104.59
2023-01-19T06:51:41.226Z,92108.16
2023-01-19T06:54:11.358Z,92101.59
2023-01-19T06:56:41.218Z,92103.00
2023-01-19T06:59:11.419Z,92104.88
2023-01-19T07:01:41.373Z,92112.44
2023-01-19T07:04:14.397Z,92114.06
2023-01-19T07:06:45.698Z,92120.09
2023-01-19T07:09:17.317Z,92121.94
2023-01-19T07:11:47.417Z,92122.84
2023-01-19T07:14:17.338Z,92114.28
2023-01-19T07:16:47.260Z,92124.19
2023-01-19T07:19:17.121Z,92122.25
2023-01-19T07:21:48.390Z,92136.06
2023-01-19T07:24:18.646Z,92131.38
2023-01-19T07:26:49.226Z,92115.47
2023-01-19T07:29:19.178Z,92126.38
2023-01-19T07:31:49.884Z,92134.81
2023-01-19T07:34:21.764Z,92138.44
2023-01-19T07:36:53.158Z,92129.16
2023-01-19T07:39:24.183Z,92125.66
2023-01-19T07:41:54.303Z,92137.19
2023-01-19T07:44:24.186Z,92127.75
2023-01-19T07:46:54.061Z,92121.75
2023-01-19T07:49:23.958Z,92117.41
2023-01-19T07:51:56.637Z,92122.50
2023-01-19T07:54:26.360Z,92126.91
2023-01-19T07:56:56.861Z,92132.75
2023-01-19T07:59:26.683Z,92124.91
2023-01-19T08:01:58.158Z,92132.63
2023-01-19T08:04:28.783Z,92129.06
2023-01-19T08:07:00.209Z,92131.97
2023-01-19T08:09:30.079Z,92128.56
2023-01-19T08:11:59.900Z,92125.66
2023-01-19T08:14:29.759Z,92135.97
2023-01-19T08:17:02.323Z,92131.13
2023-01-19T08:19:32.402Z,92134.13
2023-01-19T08:22:04.201Z,92139.75
2023-01-19T08:24:34.577Z,92127.31
2023-01-19T08:27:05.480Z,92137.97
2023-01-19T08:29:35.358Z,92134.75
2023-01-19T08:32:05.293Z,92128.06
2023-01-19T08:34:35.498Z,92136.41
2023-01-19T08:37:07.067Z,92118.72
2023-01-19T08:39:36.960Z,92124.56
2023-01-19T08:42:06.840Z,92126.16
2023-01-19T08:44:41.273Z,92118.34
2023-01-19T08:47:13.853Z,92128.63
2023-01-19T08:49:43.761Z,92117.84
2023-01-19T08:52:15.063Z,92108.84
2023-01-19T08:54:44.841Z,92118.66
2023-01-19T08:57:15.060Z,92100.16
2023-01-19T08:59:47.758Z,92111.34
2023-01-19T09:02:17.598Z,92120.69
2023-01-19T09:04:47.466Z,92109.53
2023-01-19T09:07:20.124Z,92106.84
2023-01-19T09:09:49.462Z,92107.22
2023-01-19T09:12:19.350Z,92107.50
2023-01-19T09:14:49.221Z,92104.44
2023-01-19T09:17:19.282Z,92087.78
2023-01-19T09:19:49.139Z,92096.19
2023-01-19T09:22:20.600Z,92081.50
2023-01-19T09:24:50.439Z,92077.91
2023-01-19T09:27:20.561Z,92076.09
2023-01-19T09:29:53.027Z,92077.00
2023-01-19T09:32:24.088Z,92087.09
2023-01-19T09:34:54.386Z,92078.47
2023-01-19T09:37:25.741Z,92071.97
2023-01-19T09:39:55.748Z,92079.75
2023-01-19T09:42:35.520Z,92091.94
2023-01-19T09:45:12.112Z,92075.44
2023-01-19T09:47:42.502Z,92080.03
2023-01-19T09:51:45.883Z,92076.38
2023-01-19T09:54:18.516Z,92067.38
2023-01-19T09:56:52.414Z,92071.22
2023-01-19T09:59:25.939Z,92066.94
2023-01-19T10:02:22.530Z,92063.34
2023-01-19T10:05:02.838Z,92053.66
2023-01-19T10:08:03.861Z,92051.50
2023-01-19T10:10:34.919Z,92052.94
2023-01-19T10:13:31.684Z,92047.88
2023-01-19T10:16:16.260Z,92044.25
2023-01-19T10:18:48.759Z,92040.63
2023-01-19T10:21:21.148Z,92037.78
2023-01-19T10:23:57.835Z,92032.00
2023-01-19T10:26:34.978Z,92031.41
2023-01-19T10:29:10.920Z,92031.91
2023-01-19T10:31:45.060Z,92039.63
2023-01-19T10:34:21.585Z,92037.00
2023-01-19T10:37:00.852Z,92034.91
2023-01-19T10:39:34.855Z,92021.59
2023-01-19T10:42:10.863Z,92032.09
2023-01-19T10:44:41.035Z,92017.97
2023-01-19T10:47:19.569Z,92024.72
2023-01-19T10:49:50.667Z,92017.00
2023-01-19T10:52:31.901Z,92009.97
2023-01-19T10:55:05.964Z,92013.53
2023-01-19T10:57:39.226Z,92008.81
2023-01-19T11:00:31.748Z,92013.75
2023-01-19T11:03:02.233Z,92017.53
2023-01-19T11:05:35.213Z,92018.69
2023-01-19T11:08:29.239Z,92011.16
2023-01-19T11:11:08.457Z,92012.97
2023-01-19T11:13:39.038Z,92014.09
2023-01-19T11:16:17.483Z,92009.50
2023-01-19T11:18:48.145Z,92018.06
2023-01-19T11:21:19.944Z,92009.97
2023-01-19T11:23:53.282Z,92007.03
2023-01-19T11:26:32.457Z,92008.81
2023-01-19T11:29:05.585Z,92007.69
2023-01-19T11:31:38.484Z,92010.81
2023-01-19T11:34:25.980Z,92011.75
2023-01-19T11:37:01.145Z,92010.47
2023-01-19T11:39:34.258Z,92001.63
2023-01-19T11:42:07.978Z,92001.97
2023-01-19T11:44:44.971Z,92010.34
2023-01-19T11:47:19.336Z,92010.50
2023-01-19T11:50:00.059Z,92009.16
2023-01-19T11:52:34.826Z,92000.13
2023-01-19T11:55:18.259Z,92000.91
2023-01-19T11:57:54.493Z,91996.47
2023-01-19T12:00:35.945Z,92002.88
2023-01-19T12:03:15.472Z,91987.59
2023-01-19T12:05:52.094Z,91993.97
2023-01-19T12:08:27.942Z,91991.69
2023-01-19T12:11:01.303Z,91989.06
2023-01-19T12:13:34.099Z,91986.59
2023-01-19T12:16:09.666Z,91988.91
2023-01-19T12:18:45.677Z,91984.31
2023-01-19T12:21:15.743Z,91982.69
2023-01-19T12:24:02.937Z,91983.81
2023-01-19T12:26:39.003Z,91986.09
2023-01-19T12:29:17.039Z,91976.41
2023-01-19T12:31:48.028Z,91994.47
2023-01-19T12:34:41.003Z,91979.72
2023-01-19T12:37:43.757Z,91976.56
2023-01-19T12:40:28.298Z,91966.34
2023-01-19T12:43:05.408Z,91970.25
2023-01-19T12:45:40.182Z,91971.19
2023-01-19T12:51:41.376Z,91977.34
2023-01-19T12:54:22.819Z,91982.94
2023-01-19T12:57:01.081Z,91971.91
2023-01-19T12:59:33.941Z,91978.28
2023-01-19T13:02:52.434Z,91978.47
2023-01-19T13:05:54.458Z,91969.25
2023-01-19T13:09:02.777Z,91953.81
2023-01-19T13:11:34.611Z,91956.72
2023-01-19T13:14:37.727Z,91952.78
2023-01-19T13:17:27.641Z,91970.31
2023-01-19T13:20:25.786Z,91965.25
2023-01-19T13:23:26.053Z,91966.38
2023-01-19T13:26:09.099Z,91968.31
2023-01-19T13:28:44.198Z,91965.19
2023-01-19T13:31:16.167Z,91981.09
2023-01-19T13:33:51.941Z,91967.28
2023-01-19T13:36:27.922Z,91968.75
2023-01-19T13:39:00.883Z,91980.69
2023-01-19T13:41:38.657Z,91978.00
2023-01-19T13:44:15.161Z,91976.66
2023-01-19T13:46:45.717Z,91976.78
2023-01-19T13:49:22.690Z,91985.63
2023-01-19T13:52:09.378Z,91984.00
2023-01-19T13:54:39.226Z,91997.91
2023-01-19T13:57:25.851Z,92003.16
2023-01-19T14:00:13.155Z,92010.50
2023-01-19T14:02:52.689Z,92011.50
2023-01-19T14:05:26.905Z,92014.56
2023-01-19T14:08:08.231Z,92015.56
2023-01-19T14:10:41.817Z,92016.00
2023-01-19T14:13:21.198Z,92016.59
2023-01-19T14:15:54.246Z,92026.88
2023-01-19T14:18:30.417Z,92023.97
2023-01-19T14:21:06.540Z,92027.50
2023-01-19T14:23:45.519Z,92017.91
2023-01-19T14:26:46.919Z,92025.84
2023-01-19T14:29:29.216Z,92021.50
2023-01-19T14:32:16.291Z,92026.47
2023-01-19T14:34:48.818Z,92024.47
2023-01-19T14:37:23.557Z,92020.06
2023-01-19T14:39:56.935Z,92027.53
2023-01-19T14:42:31.991Z,92026.50
2023-01-19T14:45:06.590Z,92023.63
2023-01-19T14:47:41.317Z,92024.88
2023-01-19T14:50:24.549Z,92020.53
2023-01-19T14:52:59.384Z,92026.47
2023-01-19T14:55:38.250Z,92018.22
2023-01-19T14:58:13.566Z,92019.63
2023-01-19T15:00:46.171Z,92008.78
2023-01-19T15:03:15.978Z,92004.94
2023-01-19T15:05:47.959Z,92005.50
2023-01-19T15:08:21.086Z,92003.44
2023-01-19T15:10:51.079Z,92004.72
2023-01-19T15:13:23.823Z,92009.41
2023-01-19T15:15:56.058Z,92009.97
2023-01-19T15:18:29.263Z,92010.38
2023-01-19T15:21:03.169Z,92000.50
2023-01-19T15:23:33.721Z,92004.31
2023-01-19T15:26:06.280Z,92016.84
2023-01-19T15:28:36.239Z,92012.88
2023-01-19T15:31:08.193Z,92006.41
2023-01-19T15:33:38.022Z,92002.28
2023-01-19T15:36:08.341Z,92013.84
2023-01-19T15:38:38.279Z,92013.41
2023-01-19T15:41:15.354Z,92020.44
2023-01-19T15:43:45.397Z,92027.88
2023-01-19T15:46:19.298Z,92030.91
2023-01-19T15:51:40.981Z,92040.22
2023-01-19T15:54:15.838Z,92038.59
2023-01-19T15:56:45.762Z,92054.66
2023-01-19T15:59:15.877Z,92054.00
2023-01-19T16:01:45.762Z,92049.03
2023-01-19T16:04:18.099Z,92053.84
2023-01-19T16:06:50.344Z,92059.06
2023-01-19T16:09:20.418Z,92060.31
2023-01-19T16:11:50.309Z,92063.88
2023-01-19T16:14:20.259Z,92064.00
2023-01-19T16:16:50.095Z,92059.75
2023-01-19T16:19:19.998Z,92070.44
2023-01-19T16:21:51.324Z,92069.22
2023-01-19T16:24:22.199Z,92067.81
2023-01-19T16:26:52.179Z,92062.75
2023-01-19T16:29:22.018Z,92061.94
2023-01-19T16:31:52.081Z,92058.75
2023-01-19T16:34:22.918Z,92058.88
2023-01-19T16:36:54.439Z,92059.84
2023-01-19T16:39:24.398Z,92044.44
2023-01-19T16:41:54.241Z,92044.59
2023-01-19T16:44:24.079Z,92054.47
2023-01-19T16:46:54.719Z,92052.66
2023-01-19T16:49:28.417Z,92052.66
2023-01-19T16:52:00.386Z,92048.56
2023-01-19T16:54:32.459Z,92045.41
2023-01-19T16:57:02.623Z,92049.91
2023-01-19T16:59:32.566Z,92045.53
2023-01-19T17:02:03.054Z,92039.47
2023-01-19T17:04:33.022Z,92043.44
2023-01-19T17:07:04.338Z,92027.94
2023-01-19T17:09:34.371Z,92035.06
2023-01-19T17:12:04.422Z,92024.75
2023-01-19T17:14:34.278Z,92018.84
2023-01-19T17:17:04.624Z,92014.59
2023-01-19T17:19:34.505Z,92009.94
2023-01-19T17:22:05.851Z,92018.59
2023-01-19T17:24:35.780Z,92024.75
2023-01-19T17:27:05.703Z,92019.69
2023-01-19T17:29:35.561Z,92020.63
2023-01-19T17:32:05.537Z,92023.38
2023-01-19T17:34:35.376Z,92028.03
2023-01-19T17:37:06.803Z,92032.16
2023-01-19T17:39:36.559Z,92029.56
2023-01-19T17:42:06.560Z,92022.41
2023-01-19T17:44:36.500Z,92040.00
2023-01-19T17:47:06.383Z,92038.34
2023-01-19T17:49:37.439Z,92032.44
2023-01-19T17:52:08.850Z,92038.22
2023-01-19T17:54:38.556Z,92044.94
2023-01-19T17:57:08.338Z,92030.25
2023-01-19T17:59:40.058Z,92035.59
2023-01-19T18:02:12.038Z,92030.38
2023-01-19T18:04:42.740Z,92026.13
2023-01-19T18:07:14.077Z,92027.06
2023-01-19T18:09:44.086Z,92022.00
2023-01-19T18:12:13.967Z,92023.91
2023-01-19T18:14:44.181Z,92029.25
2023-01-19T18:17:15.366Z,92040.09
2023-01-19T18:19:45.198Z,92041.06
2023-01-19T18:22:16.439Z,92044.72
2023-01-19T18:24:46.237Z,92047.34
2023-01-19T18:27:16.718Z,92026.47
2023-01-19T18:29:46.788Z,92034.44
2023-01-19T18:32:16.701Z,92035.13
2023-01-19T18:34:46.498Z,92038.84
2023-01-19T18:37:17.684Z,92042.53
2023-01-19T18:39:47.584Z,92049.41
2023-01-19T18:42:17.492Z,92041.84
2023-01-19T18:44:47.532Z,92037.44
2023-01-19T18:47:17.378Z,92037.59
2023-01-19T18:51:41.889Z,92028.09
2023-01-19T18:54:13.578Z,92019.44
2023-01-19T18:56:43.338Z,92024.66
2023-01-19T18:59:13.157Z,92030.69
2023-01-19T19:01:43.047Z,92032.63
2023-01-19T19:04:12.967Z,92026.69
2023-01-19T19:06:44.379Z,92027.66
2023-01-19T19:09:14.243Z,92028.50
2023-01-19T19:11:44.039Z,92031.91
2023-01-19T19:14:13.835Z,92031.09
2023-01-19T19:16:43.759Z,92038.81
2023-01-19T19:19:15.762Z,92040.72
2023-01-19T19:21:47.221Z,92031.09
2023-01-19T19:24:17.223Z,92026.84
2023-01-19T19:26:46.977Z,92035.50
2023-01-19T19:29:16.775Z,92027.81
2023-01-19T19:31:47.601Z,92031.25
2023-01-19T19:34:17.644Z,92032.19
2023-01-19T19:36:49.019Z,92020.09
2023-01-19T19:39:18.940Z,92003.63
2023-01-19T19:41:49.199Z,92000.34
2023-01-19T19:44:20.294Z,92009.25
2023-01-19T19:46:50.206Z,92004.31
2023-01-19T19:49:21.778Z,92013.06
2023-01-19T19:51:53.078Z,92013.34
2023-01-19T19:54:22.998Z,91988.94
2023-01-19T19:56:52.753Z,91994.41
2023-01-19T19:59:22.422Z,91997.00
2023-01-19T20:01:53.986Z,92011.97
2023-01-19T20:04:25.632Z,92006.75
2023-01-19T20:06:59.522Z,91997.00
2023-01-19T20:09:29.529Z,91993.91
2023-01-19T20:11:59.359Z,91997.03
2023-01-19T20:14:29.245Z,91999.13
2023-01-19T20:16:59.078Z,91996.38
2023-01-19T20:19:31.110Z,91991.16
2023-01-19T20:22:03.844Z,91980.88
2023-01-19T20:24:33.679Z,91980.88
2023-01-19T20:27:03.645Z,91988.72
2023-01-19T20:29:33.463Z,91986.22
2023-01-19T20:32:03.297Z,91990.59
2023-01-19T20:34:36.021Z,91976.75
2023-01-19T20:37:06.957Z,91975.78
2023-01-19T20:39:37.502Z,91987.88
2023-01-19T20:42:11.593Z,91994.59
2023-01-19T20:44:41.497Z,91984.16
2023-01-19T20:47:11.741Z,91981.56
2023-01-19T20:49:41.720Z,91986.66
2023-01-19T20:52:13.037Z,91988.56
2023-01-19T20:54:42.918Z,91985.97
2023-01-19T20:57:12.697Z,91999.94
2023-01-19T20:59:42.798Z,91982.66
2023-01-19T21:02:15.384Z,91989.66
2023-01-19T21:04:45.160Z,91980.19
2023-01-19T21:07:16.577Z,91981.84
2023-01-19T21:09:46.436Z,91982.66
2023-01-19T21:12:16.707Z,91985.13
2023-01-19T21:14:46.657Z,91994.75
2023-01-19T21:17:16.337Z,91984.31
2023-01-19T21:19:46.324Z,91987.88
2023-01-19T21:22:17.698Z,91987.88
2023-01-19T21:24:48.069Z,91982.66
2023-01-19T21:27:17.923Z,91991.31
2023-01-19T21:29:49.117Z,91979.91
2023-01-19T21:32:18.958Z,91975.41
2023-01-19T21:34:48.697Z,91968.53
2023-01-19T21:37:19.998Z,91976.34
2023-01-19T21:39:49.885Z,91983.34
2023-01-19T21:42:19.721Z,91976.50
2023-01-19T21:44:51.697Z,91971.13
2023-01-19T21:47:21.698Z,91964.28
2023-01-19T21:51:41.157Z,91960.72
2023-01-19T21:54:11.097Z,91958.25
2023-01-19T21:56:43.487Z,91950.41
2023-01-19T21:59:17.292Z,91947.81
2023-01-19T22:01:48.923Z,91946.28
2023-01-19T22:04:18.838Z,91945.59
2023-01-19T22:06:50.199Z,91943.13
2023-01-19T22:09:20.080Z,91958.75
2023-01-19T22:11:49.851Z,91952.03
2023-01-19T22:14:19.599Z,91960.69
2023-01-19T22:16:49.351Z,91964.94
2023-01-19T22:19:19.150Z,91957.81
2023-01-19T22:21:50.417Z,91946.56
2023-01-19T22:24:20.158Z,91943.69
2023-01-19T22:26:49.819Z,91935.84
2023-01-19T22:29:19.639Z,91946.44
2023-01-19T22:31:51.301Z,91939.56
2023-01-19T22:34:22.179Z,91933.66
2023-01-19T22:36:53.361Z,91937.91
2023-01-19T22:39:23.125Z,91940.66
2023-01-19T22:41:53.499Z,91934.47
2023-01-19T22:44:24.643Z,91906.91
2023-01-19T22:46:57.947Z,91896.75
2023-01-19T22:49:27.658Z,91884.13
2023-01-19T22:51:59.137Z,91890.16
2023-01-19T22:54:30.255Z,91882.75
2023-01-19T22:57:01.621Z,91895.91
2023-01-19T22:59:31.644Z,91892.50
2023-01-19T23:02:01.518Z,91888.78
2023-01-19T23:04:31.431Z,91867.00
2023-01-19T23:07:02.617Z,91874.81
2023-01-19T23:09:32.579Z,91874.81
2023-01-19T23:12:03.037Z,91864.38
2023-01-19T23:14:32.964Z,91856.69
2023-01-19T23:17:02.741Z,91859.16
2023-01-19T23:19:32.544Z,91851.75
2023-01-19T23:22:03.938Z,91843.78
2023-01-19T23:24:33.797Z,91845.16
2023-01-19T23:27:03.638Z,91844.63
2023-01-19T23:29:33.573Z,91838.16
2023-01-19T23:32:04.006Z,91853.13
2023-01-19T23:34:33.977Z,91833.38
2023-01-19T23:37:05.198Z,91831.72
2023-01-19T23:39:35.097Z,91846.53
2023-01-19T23:42:05.397Z,91845.69
2023-01-19T23:44:36.157Z,91838.16
2023-01-19T23:47:06.097Z,91838.28
2023-01-19T23:49:35.859Z,91833.34
2023-01-19T23:52:08.017Z,91826.75
2023-01-19T23:54:38.064Z,91844.19
2023-01-19T23:57:07.857Z,91839.78
2023-01-19T23:59:37.760Z,91831.16
